sensor_id;sensor_type;location;lat;lon;timestamp;temperature;humidity
80937;DHT22;70395;51.382;7.074;2023-07-13T00:05:29;18.80;51.20
80937;DHT22;70395;51.382;7.074;2023-07-13T00:07:55;18.80;51.00
80937;DHT22;70395;51.382;7.074;2023-07-13T00:10:21;18.70;51.10
80937;DHT22;70395;51.382;7.074;2023-07-13T00:12:47;18.70;51.10
80937;DHT22;70395;51.382;7.074;2023-07-13T00:15:20;18.60;51.30
80937;DHT22;70395;51.382;7.074;2023-07-13T00:17:52;18.60;51.50
80937;DHT22;70395;51.382;7.074;2023-07-13T00:20:21;18.60;51.70
80937;DHT22;70395;51.382;7.074;2023-07-13T00:22:51;18.50;51.40
80937;DHT22;70395;51.382;7.074;2023-07-13T00:25:21;18.50;51.50
80937;DHT22;70395;51.382;7.074;2023-07-13T00:27:50;18.50;51.60
80937;DHT22;70395;51.382;7.074;2023-07-13T00:30:16;18.40;51.40
80937;DHT22;70395;51.382;7.074;2023-07-13T00:32:42;18.40;51.70
80937;DHT22;70395;51.382;7.074;2023-07-13T00:35:09;18.40;51.70
80937;DHT22;70395;51.382;7.074;2023-07-13T00:37:35;18.40;51.80
80937;DHT22;70395;51.382;7.074;2023-07-13T00:40:05;18.40;51.80
80937;DHT22;70395;51.382;7.074;2023-07-13T00:42:32;18.30;52.20
80937;DHT22;70395;51.382;7.074;2023-07-13T00:47:40;18.30;52.10
80937;DHT22;70395;51.382;7.074;2023-07-13T00:50:10;18.30;51.90
80937;DHT22;70395;51.382;7.074;2023-07-13T00:52:40;18.30;52.00
80937;DHT22;70395;51.382;7.074;2023-07-13T00:55:11;18.30;52.20
80937;DHT22;70395;51.382;7.074;2023-07-13T00:57:38;18.30;52.30
80937;DHT22;70395;51.382;7.074;2023-07-13T01:00:06;18.30;52.10
80937;DHT22;70395;51.382;7.074;2023-07-13T01:02:36;18.20;52.20
80937;DHT22;70395;51.382;7.074;2023-07-13T01:05:15;18.20;52.40
80937;DHT22;70395;51.382;7.074;2023-07-13T01:07:44;18.20;52.30
80937;DHT22;70395;51.382;7.074;2023-07-13T01:10:11;18.20;52.20
80937;DHT22;70395;51.382;7.074;2023-07-13T01:12:38;18.20;52.40
80937;DHT22;70395;51.382;7.074;2023-07-13T01:15:05;18.10;52.40
80937;DHT22;70395;51.382;7.074;2023-07-13T01:17:33;18.10;52.60
80937;DHT22;70395;51.382;7.074;2023-07-13T01:20:00;18.10;52.60
80937;DHT22;70395;51.382;7.074;2023-07-13T01:22:26;18.10;52.60
80937;DHT22;70395;51.382;7.074;2023-07-13T01:24:53;18.10;52.40
80937;DHT22;70395;51.382;7.074;2023-07-13T01:27:25;18.00;52.70
80937;DHT22;70395;51.382;7.074;2023-07-13T01:29:52;18.00;52.70
80937;DHT22;70395;51.382;7.074;2023-07-13T01:32:28;18.00;52.50
80937;DHT22;70395;51.382;7.074;2023-07-13T01:34:56;18.00;52.40
80937;DHT22;70395;51.382;7.074;2023-07-13T01:37:26;18.00;52.60
80937;DHT22;70395;51.382;7.074;2023-07-13T01:39:52;18.00;52.90
80937;DHT22;70395;51.382;7.074;2023-07-13T01:42:18;18.00;53.00
80937;DHT22;70395;51.382;7.074;2023-07-13T01:44:44;18.00;52.80
80937;DHT22;70395;51.382;7.074;2023-07-13T01:47:10;18.00;52.70
80937;DHT22;70395;51.382;7.074;2023-07-13T01:49:36;18.00;53.10
80937;DHT22;70395;51.382;7.074;2023-07-13T01:52:03;18.00;53.00
80937;DHT22;70395;51.382;7.074;2023-07-13T01:54:29;18.00;53.00
80937;DHT22;70395;51.382;7.074;2023-07-13T01:56:55;18.00;53.10
80937;DHT22;70395;51.382;7.074;2023-07-13T01:59:21;17.90;53.10
80937;DHT22;70395;51.382;7.074;2023-07-13T02:01:46;17.90;53.00
80937;DHT22;70395;51.382;7.074;2023-07-13T02:04:13;17.90;53.00
80937;DHT22;70395;51.382;7.074;2023-07-13T02:06:39;17.90;53.30
80937;DHT22;70395;51.382;7.074;2023-07-13T02:09:05;17.90;53.30
80937;DHT22;70395;51.382;7.074;2023-07-13T02:11:32;17.90;53.30
80937;DHT22;70395;51.382;7.074;2023-07-13T02:14:00;17.80;53.60
80937;DHT22;70395;51.382;7.074;2023-07-13T02:16:30;17.80;53.50
80937;DHT22;70395;51.382;7.074;2023-07-13T02:18:56;17.80;53.60
80937;DHT22;70395;51.382;7.074;2023-07-13T02:21:23;17.80;53.50
80937;DHT22;70395;51.382;7.074;2023-07-13T02:23:50;17.70;53.60
80937;DHT22;70395;51.382;7.074;2023-07-13T02:26:16;17.70;53.60
80937;DHT22;70395;51.382;7.074;2023-07-13T02:28:41;17.70;53.70
80937;DHT22;70395;51.382;7.074;2023-07-13T02:31:09;17.70;53.70
80937;DHT22;70395;51.382;7.074;2023-07-13T02:33:37;17.70;53.70
80937;DHT22;70395;51.382;7.074;2023-07-13T02:36:04;17.70;53.80
80937;DHT22;70395;51.382;7.074;2023-07-13T02:38:31;17.70;53.80
80937;DHT22;70395;51.382;7.074;2023-07-13T02:41:03;17.60;54.00
80937;DHT22;70395;51.382;7.074;2023-07-13T02:43:29;17.70;54.10
80937;DHT22;70395;51.382;7.074;2023-07-13T02:45:55;17.60;54.00
80937;DHT22;70395;51.382;7.074;2023-07-13T02:48:21;17.60;54.50
80937;DHT22;70395;51.382;7.074;2023-07-13T02:50:47;17.60;54.50
80937;DHT22;70395;51.382;7.074;2023-07-13T02:53:13;17.60;54.40
80937;DHT22;70395;51.382;7.074;2023-07-13T02:55:38;17.60;54.60
80937;DHT22;70395;51.382;7.074;2023-07-13T02:58:06;17.50;54.50
80937;DHT22;70395;51.382;7.074;2023-07-13T03:00:32;17.50;54.60
80937;DHT22;70395;51.382;7.074;2023-07-13T03:02:58;17.50;54.70
80937;DHT22;70395;51.382;7.074;2023-07-13T03:05:24;17.50;54.60
80937;DHT22;70395;51.382;7.074;2023-07-13T03:07:50;17.50;54.70
80937;DHT22;70395;51.382;7.074;2023-07-13T03:10:16;17.40;55.60
80937;DHT22;70395;51.382;7.074;2023-07-13T03:12:42;17.40;54.80
80937;DHT22;70395;51.382;7.074;2023-07-13T03:15:08;17.40;54.90
80937;DHT22;70395;51.382;7.074;2023-07-13T03:17:34;17.40;55.00
80937;DHT22;70395;51.382;7.074;2023-07-13T03:20:00;17.40;55.40
80937;DHT22;70395;51.382;7.074;2023-07-13T03:22:26;17.40;55.30
80937;DHT22;70395;51.382;7.074;2023-07-13T03:24:52;17.30;55.50
80937;DHT22;70395;51.382;7.074;2023-07-13T03:27:17;17.40;55.60
80937;DHT22;70395;51.382;7.074;2023-07-13T03:29:43;17.30;55.40
80937;DHT22;70395;51.382;7.074;2023-07-13T03:32:09;17.30;55.60
80937;DHT22;70395;51.382;7.074;2023-07-13T03:34:35;17.30;55.70
80937;DHT22;70395;51.382;7.074;2023-07-13T03:37:01;17.30;55.70
80937;DHT22;70395;51.382;7.074;2023-07-13T03:39:27;17.30;55.90
80937;DHT22;70395;51.382;7.074;2023-07-13T03:41:53;17.30;55.80
80937;DHT22;70395;51.382;7.074;2023-07-13T03:44:19;17.20;56.10
80937;DHT22;70395;51.382;7.074;2023-07-13T03:46:45;17.20;56.10
80937;DHT22;70395;51.382;7.074;2023-07-13T03:49:11;17.30;56.40
80937;DHT22;70395;51.382;7.074;2023-07-13T03:51:37;17.20;56.30
80937;DHT22;70395;51.382;7.074;2023-07-13T03:54:03;17.20;56.30
80937;DHT22;70395;51.382;7.074;2023-07-13T03:56:30;17.20;56.30
80937;DHT22;70395;51.382;7.074;2023-07-13T03:58:56;17.20;56.50
80937;DHT22;70395;51.382;7.074;2023-07-13T04:01:23;17.30;56.70
80937;DHT22;70395;51.382;7.074;2023-07-13T04:03:51;17.30;56.80
80937;DHT22;70395;51.382;7.074;2023-07-13T04:06:28;17.30;56.60
80937;DHT22;70395;51.382;7.074;2023-07-13T04:08:58;17.30;57.20
80937;DHT22;70395;51.382;7.074;2023-07-13T04:11:28;17.30;56.90
80937;DHT22;70395;51.382;7.074;2023-07-13T04:13:55;17.30;56.90
80937;DHT22;70395;51.382;7.074;2023-07-13T04:16:21;17.30;56.90
80937;DHT22;70395;51.382;7.074;2023-07-13T04:18:48;17.40;57.20
80937;DHT22;70395;51.382;7.074;2023-07-13T04:21:15;17.40;57.00
80937;DHT22;70395;51.382;7.074;2023-07-13T04:23:42;17.40;57.20
80937;DHT22;70395;51.382;7.074;2023-07-13T04:26:09;17.50;57.40
80937;DHT22;70395;51.382;7.074;2023-07-13T04:28:35;17.50;57.30
80937;DHT22;70395;51.382;7.074;2023-07-13T04:31:01;17.50;57.30
80937;DHT22;70395;51.382;7.074;2023-07-13T04:33:27;17.60;57.30
80937;DHT22;70395;51.382;7.074;2023-07-13T04:35:54;17.50;57.20
80937;DHT22;70395;51.382;7.074;2023-07-13T04:38:27;17.60;57.70
80937;DHT22;70395;51.382;7.074;2023-07-13T04:40:56;17.60;57.60
80937;DHT22;70395;51.382;7.074;2023-07-13T04:43:24;17.70;57.50
80937;DHT22;70395;51.382;7.074;2023-07-13T04:45:51;17.70;57.50
80937;DHT22;70395;51.382;7.074;2023-07-13T04:48:17;17.80;57.80
80937;DHT22;70395;51.382;7.074;2023-07-13T04:50:44;17.80;57.60
80937;DHT22;70395;51.382;7.074;2023-07-13T04:53:11;17.90;57.70
80937;DHT22;70395;51.382;7.074;2023-07-13T04:55:38;18.00;57.60
80937;DHT22;70395;51.382;7.074;2023-07-13T04:58:04;18.00;57.70
80937;DHT22;70395;51.382;7.074;2023-07-13T05:00:30;18.10;57.40
80937;DHT22;70395;51.382;7.074;2023-07-13T05:02:57;18.20;57.30
80937;DHT22;70395;51.382;7.074;2023-07-13T05:05:25;18.20;57.40
80937;DHT22;70395;51.382;7.074;2023-07-13T05:07:53;18.30;57.40
80937;DHT22;70395;51.382;7.074;2023-07-13T05:10:19;18.30;57.60
80937;DHT22;70395;51.382;7.074;2023-07-13T05:12:45;18.40;57.50
80937;DHT22;70395;51.382;7.074;2023-07-13T05:15:11;18.50;57.20
80937;DHT22;70395;51.382;7.074;2023-07-13T05:17:37;18.60;57.20
80937;DHT22;70395;51.382;7.074;2023-07-13T05:20:05;18.60;57.30
80937;DHT22;70395;51.382;7.074;2023-07-13T05:22:31;18.70;57.10
80937;DHT22;70395;51.382;7.074;2023-07-13T05:24:57;18.80;57.10
80937;DHT22;70395;51.382;7.074;2023-07-13T05:27:23;18.80;57.00
80937;DHT22;70395;51.382;7.074;2023-07-13T05:29:49;18.90;57.10
80937;DHT22;70395;51.382;7.074;2023-07-13T05:32:15;18.90;57.10
80937;DHT22;70395;51.382;7.074;2023-07-13T05:34:42;19.00;57.20
80937;DHT22;70395;51.382;7.074;2023-07-13T05:37:08;19.10;57.10
80937;DHT22;70395;51.382;7.074;2023-07-13T05:39:34;19.10;57.00
80937;DHT22;70395;51.382;7.074;2023-07-13T05:42:02;19.30;57.10
80937;DHT22;70395;51.382;7.074;2023-07-13T05:44:28;19.40;57.00
80937;DHT22;70395;51.382;7.074;2023-07-13T05:46:54;19.40;56.70
80937;DHT22;70395;51.382;7.074;2023-07-13T05:49:22;19.60;56.70
80937;DHT22;70395;51.382;7.074;2023-07-13T05:51:48;19.60;56.50
80937;DHT22;70395;51.382;7.074;2023-07-13T05:54:14;19.80;56.50
80937;DHT22;70395;51.382;7.074;2023-07-13T05:56:40;19.80;56.20
80937;DHT22;70395;51.382;7.074;2023-07-13T05:59:05;19.90;56.30
80937;DHT22;70395;51.382;7.074;2023-07-13T06:01:31;20.00;56.10
80937;DHT22;70395;51.382;7.074;2023-07-13T06:03:57;20.00;55.80
80937;DHT22;70395;51.382;7.074;2023-07-13T06:06:23;20.10;55.90
80937;DHT22;70395;51.382;7.074;2023-07-13T06:08:49;20.10;55.90
80937;DHT22;70395;51.382;7.074;2023-07-13T06:11:24;20.10;55.90
80937;DHT22;70395;51.382;7.074;2023-07-13T06:13:53;20.20;55.60
80937;DHT22;70395;51.382;7.074;2023-07-13T06:16:19;20.20;55.90
80937;DHT22;70395;51.382;7.074;2023-07-13T06:18:46;20.20;55.60
80937;DHT22;70395;51.382;7.074;2023-07-13T06:21:20;20.20;55.70
80937;DHT22;70395;51.382;7.074;2023-07-13T06:23:49;20.20;55.60
80937;DHT22;70395;51.382;7.074;2023-07-13T06:26:19;20.20;55.60
80937;DHT22;70395;51.382;7.074;2023-07-13T06:28:46;20.30;55.90
80937;DHT22;70395;51.382;7.074;2023-07-13T06:31:13;20.30;55.90
80937;DHT22;70395;51.382;7.074;2023-07-13T06:33:39;20.30;56.70
80937;DHT22;70395;51.382;7.074;2023-07-13T06:36:06;20.40;56.00
80937;DHT22;70395;51.382;7.074;2023-07-13T06:38:34;20.50;56.00
80937;DHT22;70395;51.382;7.074;2023-07-13T06:41:00;20.50;55.60
80937;DHT22;70395;51.382;7.074;2023-07-13T06:43:26;20.60;55.50
80937;DHT22;70395;51.382;7.074;2023-07-13T06:45:55;20.60;55.90
80937;DHT22;70395;51.382;7.074;2023-07-13T06:48:21;20.70;55.80
80937;DHT22;70395;51.382;7.074;2023-07-13T06:50:49;20.80;56.00
80937;DHT22;70395;51.382;7.074;2023-07-13T06:53:17;20.80;55.70
80937;DHT22;70395;51.382;7.074;2023-07-13T06:55:45;20.90;55.70
80937;DHT22;70395;51.382;7.074;2023-07-13T06:58:11;20.90;55.60
80937;DHT22;70395;51.382;7.074;2023-07-13T07:00:38;21.00;55.20
80937;DHT22;70395;51.382;7.074;2023-07-13T07:03:05;21.10;55.20
80937;DHT22;70395;51.382;7.074;2023-07-13T07:05:31;21.10;54.90
80937;DHT22;70395;51.382;7.074;2023-07-13T07:07:57;21.20;55.20
80937;DHT22;70395;51.382;7.074;2023-07-13T07:10:23;21.30;55.30
80937;DHT22;70395;51.382;7.074;2023-07-13T07:12:48;21.30;55.60
80937;DHT22;70395;51.382;7.074;2023-07-13T07:15:14;21.40;55.20
80937;DHT22;70395;51.382;7.074;2023-07-13T07:17:40;21.50;55.00
80937;DHT22;70395;51.382;7.074;2023-07-13T07:20:07;21.60;55.10
80937;DHT22;70395;51.382;7.074;2023-07-13T07:22:33;21.70;54.80
80937;DHT22;70395;51.382;7.074;2023-07-13T07:24:59;21.80;55.00
80937;DHT22;70395;51.382;7.074;2023-07-13T07:27:25;22.00;55.10
80937;DHT22;70395;51.382;7.074;2023-07-13T07:29:51;22.10;54.60
80937;DHT22;70395;51.382;7.074;2023-07-13T07:32:19;22.30;54.60
80937;DHT22;70395;51.382;7.074;2023-07-13T07:34:45;22.40;53.70
80937;DHT22;70395;51.382;7.074;2023-07-13T07:37:13;22.40;53.40
80937;DHT22;70395;51.382;7.074;2023-07-13T07:39:39;22.50;53.40
80937;DHT22;70395;51.382;7.074;2023-07-13T07:42:06;22.50;53.50
80937;DHT22;70395;51.382;7.074;2023-07-13T07:44:32;22.60;53.80
80937;DHT22;70395;51.382;7.074;2023-07-13T07:46:58;22.60;53.80
80937;DHT22;70395;51.382;7.074;2023-07-13T07:49:24;22.80;53.80
80937;DHT22;70395;51.382;7.074;2023-07-13T07:51:51;22.80;53.40
80937;DHT22;70395;51.382;7.074;2023-07-13T07:54:17;22.90;53.00
80937;DHT22;70395;51.382;7.074;2023-07-13T07:56:43;23.00;52.90
80937;DHT22;70395;51.382;7.074;2023-07-13T07:59:09;23.10;53.20
80937;DHT22;70395;51.382;7.074;2023-07-13T08:01:36;23.10;52.80
80937;DHT22;70395;51.382;7.074;2023-07-13T08:04:02;23.30;52.70
80937;DHT22;70395;51.382;7.074;2023-07-13T08:06:28;23.40;53.20
80937;DHT22;70395;51.382;7.074;2023-07-13T08:08:54;23.60;52.20
80937;DHT22;70395;51.382;7.074;2023-07-13T08:11:21;23.80;51.80
80937;DHT22;70395;51.382;7.074;2023-07-13T08:13:47;24.00;52.10
80937;DHT22;70395;51.382;7.074;2023-07-13T08:16:19;24.10;51.60
80937;DHT22;70395;51.382;7.074;2023-07-13T08:18:48;24.30;51.20
80937;DHT22;70395;51.382;7.074;2023-07-13T08:21:14;24.40;51.00
80937;DHT22;70395;51.382;7.074;2023-07-13T08:23:40;24.50;51.00
80937;DHT22;70395;51.382;7.074;2023-07-13T08:26:06;24.50;51.00
80937;DHT22;70395;51.382;7.074;2023-07-13T08:28:33;24.70;51.40
80937;DHT22;70395;51.382;7.074;2023-07-13T08:31:06;24.80;50.80
80937;DHT22;70395;51.382;7.074;2023-07-13T08:33:35;24.90;50.20
80937;DHT22;70395;51.382;7.074;2023-07-13T08:36:02;24.90;49.50
80937;DHT22;70395;51.382;7.074;2023-07-13T08:38:30;25.00;49.20
80937;DHT22;70395;51.382;7.074;2023-07-13T08:40:56;25.00;49.40
80937;DHT22;70395;51.382;7.074;2023-07-13T08:43:35;25.00;49.40
80937;DHT22;70395;51.382;7.074;2023-07-13T08:46:19;25.10;49.70
80937;DHT22;70395;51.382;7.074;2023-07-13T08:49:06;25.10;48.90
80937;DHT22;70395;51.382;7.074;2023-07-13T08:51:42;25.20;48.90
80937;DHT22;70395;51.382;7.074;2023-07-13T08:54:24;25.30;49.30
80937;DHT22;70395;51.382;7.074;2023-07-13T08:57:14;25.40;48.80
80937;DHT22;70395;51.382;7.074;2023-07-13T08:59:43;25.50;49.10
80937;DHT22;70395;51.382;7.074;2023-07-13T09:02:17;25.70;48.50
80937;DHT22;70395;51.382;7.074;2023-07-13T09:05:03;25.80;48.10
80937;DHT22;70395;51.382;7.074;2023-07-13T09:10:30;26.20;49.10
80937;DHT22;70395;51.382;7.074;2023-07-13T09:13:07;26.30;47.80
80937;DHT22;70395;51.382;7.074;2023-07-13T09:15:44;26.40;46.90
80937;DHT22;70395;51.382;7.074;2023-07-13T09:18:23;26.50;47.30
80937;DHT22;70395;51.382;7.074;2023-07-13T09:21:04;26.50;46.80
80937;DHT22;70395;51.382;7.074;2023-07-13T09:23:35;26.50;46.80
80937;DHT22;70395;51.382;7.074;2023-07-13T09:26:12;26.50;46.60
80937;DHT22;70395;51.382;7.074;2023-07-13T09:28:49;26.50;46.40
80937;DHT22;70395;51.382;7.074;2023-07-13T09:31:30;26.60;46.90
80937;DHT22;70395;51.382;7.074;2023-07-13T09:34:02;26.80;48.20
80937;DHT22;70395;51.382;7.074;2023-07-13T09:36:34;27.00;46.80
80937;DHT22;70395;51.382;7.074;2023-07-13T09:41:50;27.30;45.00
80937;DHT22;70395;51.382;7.074;2023-07-13T09:44:34;27.30;44.50
80937;DHT22;70395;51.382;7.074;2023-07-13T09:47:02;27.20;43.90
80937;DHT22;70395;51.382;7.074;2023-07-13T09:49:36;27.10;44.50
80937;DHT22;70395;51.382;7.074;2023-07-13T09:52:05;27.00;45.00
80937;DHT22;70395;51.382;7.074;2023-07-13T09:54:37;26.80;45.10
80937;DHT22;70395;51.382;7.074;2023-07-13T09:57:15;26.80;45.50
80937;DHT22;70395;51.382;7.074;2023-07-13T09:59:48;26.80;45.80
80937;DHT22;70395;51.382;7.074;2023-07-13T10:02:34;26.90;46.00
80937;DHT22;70395;51.382;7.074;2023-07-13T10:05:07;27.10;44.90
80937;DHT22;70395;51.382;7.074;2023-07-13T10:07:43;27.30;45.20
80937;DHT22;70395;51.382;7.074;2023-07-13T10:10:18;27.60;45.20
80937;DHT22;70395;51.382;7.074;2023-07-13T10:12:48;27.90;44.90
80937;DHT22;70395;51.382;7.074;2023-07-13T10:15:18;28.20;44.40
80937;DHT22;70395;51.382;7.074;2023-07-13T10:17:46;28.40;43.30
80937;DHT22;70395;51.382;7.074;2023-07-13T10:20:14;28.60;43.90
80937;DHT22;70395;51.382;7.074;2023-07-13T10:23:04;28.90;43.80
80937;DHT22;70395;51.382;7.074;2023-07-13T10:25:39;29.20;42.10
80937;DHT22;70395;51.382;7.074;2023-07-13T10:30:56;29.70;41.60
80937;DHT22;70395;51.382;7.074;2023-07-13T10:33:25;29.90;40.70
80937;DHT22;70395;51.382;7.074;2023-07-13T10:35:57;30.00;40.40
80937;DHT22;70395;51.382;7.074;2023-07-13T10:38:35;29.90;39.40
80937;DHT22;70395;51.382;7.074;2023-07-13T10:41:04;29.70;39.50
80937;DHT22;70395;51.382;7.074;2023-07-13T10:43:36;29.40;39.00
80937;DHT22;70395;51.382;7.074;2023-07-13T10:46:08;29.10;39.70
80937;DHT22;70395;51.382;7.074;2023-07-13T10:48:37;28.80;40.40
80937;DHT22;70395;51.382;7.074;2023-07-13T10:51:06;28.50;40.80
80937;DHT22;70395;51.382;7.074;2023-07-13T10:53:35;28.30;41.10
80937;DHT22;70395;51.382;7.074;2023-07-13T10:56:24;28.00;41.40
80937;DHT22;70395;51.382;7.074;2023-07-13T10:59:46;27.80;41.20
80937;DHT22;70395;51.382;7.074;2023-07-13T11:02:10;27.50;41.90
80937;DHT22;70395;51.382;7.074;2023-07-13T11:04:46;27.30;43.10
80937;DHT22;70395;51.382;7.074;2023-07-13T11:07:28;27.20;42.90
80937;DHT22;70395;51.382;7.074;2023-07-13T11:09:59;27.30;43.10
80937;DHT22;70395;51.382;7.074;2023-07-13T11:12:50;27.30;42.90
80937;DHT22;70395;51.382;7.074;2023-07-13T11:15:32;27.60;42.70
80937;DHT22;70395;51.382;7.074;2023-07-13T11:18:23;28.10;42.80
80937;DHT22;70395;51.382;7.074;2023-07-13T11:20:50;28.60;41.90
80937;DHT22;70395;51.382;7.074;2023-07-13T11:23:20;29.10;40.80
80937;DHT22;70395;51.382;7.074;2023-07-13T11:25:54;29.30;39.60
80937;DHT22;70395;51.382;7.074;2023-07-13T11:28:25;29.50;39.80
80937;DHT22;70395;51.382;7.074;2023-07-13T11:34:07;29.90;39.90
80937;DHT22;70395;51.382;7.074;2023-07-13T11:36:16;30.10;39.40
80937;DHT22;70395;51.382;7.074;2023-07-13T11:39:05;30.40;40.50
80937;DHT22;70395;51.382;7.074;2023-07-13T11:42:02;30.70;37.60
80937;DHT22;70395;51.382;7.074;2023-07-13T11:44:33;30.90;38.30
80937;DHT22;70395;51.382;7.074;2023-07-13T11:47:11;31.20;37.20
80937;DHT22;70395;51.382;7.074;2023-07-13T11:49:49;31.50;35.80
80937;DHT22;70395;51.382;7.074;2023-07-13T11:52:21;31.80;37.80
80937;DHT22;70395;51.382;7.074;2023-07-13T11:54:57;32.00;36.50
80937;DHT22;70395;51.382;7.074;2023-07-13T11:57:32;32.30;35.00
80937;DHT22;70395;51.382;7.074;2023-07-13T12:00:09;32.50;34.50
80937;DHT22;70395;51.382;7.074;2023-07-13T12:02:46;32.60;34.10
80937;DHT22;70395;51.382;7.074;2023-07-13T12:05:17;32.80;34.00
80937;DHT22;70395;51.382;7.074;2023-07-13T12:07:46;32.90;34.90
80937;DHT22;70395;51.382;7.074;2023-07-13T12:10:28;33.10;32.90
80937;DHT22;70395;51.382;7.074;2023-07-13T12:13:03;33.30;32.20
80937;DHT22;70395;51.382;7.074;2023-07-13T12:15:43;33.40;31.60
80937;DHT22;70395;51.382;7.074;2023-07-13T12:18:18;33.30;31.80
80937;DHT22;70395;51.382;7.074;2023-07-13T12:20:46;33.20;32.10
80937;DHT22;70395;51.382;7.074;2023-07-13T12:25:53;33.10;32.20
80937;DHT22;70395;51.382;7.074;2023-07-13T12:31:07;33.30;31.30
80937;DHT22;70395;51.382;7.074;2023-07-13T12:34:05;33.40;32.10
80937;DHT22;70395;51.382;7.074;2023-07-13T12:36:35;33.40;32.90
80937;DHT22;70395;51.382;7.074;2023-07-13T12:39:23;33.40;32.60
80937;DHT22;70395;51.382;7.074;2023-07-13T12:42:22;33.30;30.60
80937;DHT22;70395;51.382;7.074;2023-07-13T12:45:02;33.00;32.00
80937;DHT22;70395;51.382;7.074;2023-07-13T12:47:43;32.70;32.50
80937;DHT22;70395;51.382;7.074;2023-07-13T12:50:23;32.50;31.70
80937;DHT22;70395;51.382;7.074;2023-07-13T12:52:56;32.30;32.30
80937;DHT22;70395;51.382;7.074;2023-07-13T12:55:28;32.20;32.80
80937;DHT22;70395;51.382;7.074;2023-07-13T12:57:59;32.20;31.90
80937;DHT22;70395;51.382;7.074;2023-07-13T13:00:31;32.10;33.10
80937;DHT22;70395;51.382;7.074;2023-07-13T13:03:12;32.20;31.90
80937;DHT22;70395;51.382;7.074;2023-07-13T13:05:43;32.30;32.10
80937;DHT22;70395;51.382;7.074;2023-07-13T13:08:13;32.40;32.20
80937;DHT22;70395;51.382;7.074;2023-07-13T13:10:39;32.30;32.50
80937;DHT22;70395;51.382;7.074;2023-07-13T13:13:05;32.10;32.20
80937;DHT22;70395;51.382;7.074;2023-07-13T13:15:31;31.80;32.70
80937;DHT22;70395;51.382;7.074;2023-07-13T13:17:58;31.40;32.40
80937;DHT22;70395;51.382;7.074;2023-07-13T13:20:25;31.00;32.90
80937;DHT22;70395;51.382;7.074;2023-07-13T13:22:53;30.60;33.70
80937;DHT22;70395;51.382;7.074;2023-07-13T13:25:20;30.10;34.10
80937;DHT22;70395;51.382;7.074;2023-07-13T13:27:48;29.70;34.00
80937;DHT22;70395;51.382;7.074;2023-07-13T13:30:16;29.20;34.80
80937;DHT22;70395;51.382;7.074;2023-07-13T13:32:45;28.80;35.10
80937;DHT22;70395;51.382;7.074;2023-07-13T13:35:17;28.40;35.80
80937;DHT22;70395;51.382;7.074;2023-07-13T13:37:45;28.10;36.90
80937;DHT22;70395;51.382;7.074;2023-07-13T13:40:21;27.80;36.90
80937;DHT22;70395;51.382;7.074;2023-07-13T13:42:51;27.70;37.60
80937;DHT22;70395;51.382;7.074;2023-07-13T13:45:19;27.80;38.10
80937;DHT22;70395;51.382;7.074;2023-07-13T13:47:46;27.80;38.10
80937;DHT22;70395;51.382;7.074;2023-07-13T13:50:20;27.90;38.90
80937;DHT22;70395;51.382;7.074;2023-07-13T13:52:50;28.20;38.30
80937;DHT22;70395;51.382;7.074;2023-07-13T13:55:21;28.40;37.80
80937;DHT22;70395;51.382;7.074;2023-07-13T13:57:49;28.70;38.20
80937;DHT22;70395;51.382;7.074;2023-07-13T14:00:16;28.90;38.40
80937;DHT22;70395;51.382;7.074;2023-07-13T14:02:46;29.10;37.60
80937;DHT22;70395;51.382;7.074;2023-07-13T14:05:15;29.20;36.70
80937;DHT22;70395;51.382;7.074;2023-07-13T14:07:47;29.10;37.40
80937;DHT22;70395;51.382;7.074;2023-07-13T14:10:15;29.00;37.80
80937;DHT22;70395;51.382;7.074;2023-07-13T14:12:44;28.80;37.10
80937;DHT22;70395;51.382;7.074;2023-07-13T14:15:30;28.60;37.80
80937;DHT22;70395;51.382;7.074;2023-07-13T14:17:56;28.20;38.60
80937;DHT22;70395;51.382;7.074;2023-07-13T14:20:24;28.00;39.40
80937;DHT22;70395;51.382;7.074;2023-07-13T14:22:52;27.70;40.50
80937;DHT22;70395;51.382;7.074;2023-07-13T14:25:19;27.40;41.00
80937;DHT22;70395;51.382;7.074;2023-07-13T14:27:49;27.30;41.80
80937;DHT22;70395;51.382;7.074;2023-07-13T14:30:21;27.30;42.60
80937;DHT22;70395;51.382;7.074;2023-07-13T14:32:48;27.30;41.80
80937;DHT22;70395;51.382;7.074;2023-07-13T14:35:19;27.40;41.80
80937;DHT22;70395;51.382;7.074;2023-07-13T14:37:47;27.60;42.30
80937;DHT22;70395;51.382;7.074;2023-07-13T14:40:14;27.80;42.20
80937;DHT22;70395;51.382;7.074;2023-07-13T14:42:47;28.00;42.00
80937;DHT22;70395;51.382;7.074;2023-07-13T14:45:17;28.20;42.50
80937;DHT22;70395;51.382;7.074;2023-07-13T14:47:46;28.40;42.90
80937;DHT22;70395;51.382;7.074;2023-07-13T14:50:31;28.60;42.40
80937;DHT22;70395;51.382;7.074;2023-07-13T14:52:58;28.90;42.40
80937;DHT22;70395;51.382;7.074;2023-07-13T14:55:23;29.20;42.50
80937;DHT22;70395;51.382;7.074;2023-07-13T14:57:52;29.30;41.60
80937;DHT22;70395;51.382;7.074;2023-07-13T15:00:21;29.40;41.30
80937;DHT22;70395;51.382;7.074;2023-07-13T15:02:51;29.30;41.00
80937;DHT22;70395;51.382;7.074;2023-07-13T15:05:25;29.20;41.60
80937;DHT22;70395;51.382;7.074;2023-07-13T15:08:02;29.10;41.30
80937;DHT22;70395;51.382;7.074;2023-07-13T15:10:32;28.90;41.50
80937;DHT22;70395;51.382;7.074;2023-07-13T15:13:01;28.80;42.50
80937;DHT22;70395;51.382;7.074;2023-07-13T15:15:42;28.70;42.20
80937;DHT22;70395;51.382;7.074;2023-07-13T15:18:12;28.60;42.10
80937;DHT22;70395;51.382;7.074;2023-07-13T15:20:39;28.50;42.20
80937;DHT22;70395;51.382;7.074;2023-07-13T15:23:05;28.40;42.20
80937;DHT22;70395;51.382;7.074;2023-07-13T15:25:33;28.20;42.30
80937;DHT22;70395;51.382;7.074;2023-07-13T15:27:59;27.90;42.40
80937;DHT22;70395;51.382;7.074;2023-07-13T15:30:29;27.70;42.70
80937;DHT22;70395;51.382;7.074;2023-07-13T15:33:26;27.40;43.50
80937;DHT22;70395;51.382;7.074;2023-07-13T15:35:54;27.10;45.10
80937;DHT22;70395;51.382;7.074;2023-07-13T15:38:27;26.80;44.70
80937;DHT22;70395;51.382;7.074;2023-07-13T15:40:55;26.50;45.70
80937;DHT22;70395;51.382;7.074;2023-07-13T15:43:22;26.30;46.40
80937;DHT22;70395;51.382;7.074;2023-07-13T15:45:49;26.10;47.30
80937;DHT22;70395;51.382;7.074;2023-07-13T15:48:19;25.80;48.40
80937;DHT22;70395;51.382;7.074;2023-07-13T15:53:25;25.10;49.40
80937;DHT22;70395;51.382;7.074;2023-07-13T15:55:55;24.80;50.20
80937;DHT22;70395;51.382;7.074;2023-07-13T15:58:22;24.60;51.00
80937;DHT22;70395;51.382;7.074;2023-07-13T16:00:48;24.30;51.30
80937;DHT22;70395;51.382;7.074;2023-07-13T16:03:19;24.10;52.00
80937;DHT22;70395;51.382;7.074;2023-07-13T16:05:46;23.90;52.50
80937;DHT22;70395;51.382;7.074;2023-07-13T16:08:27;23.80;52.90
80937;DHT22;70395;51.382;7.074;2023-07-13T16:10:56;23.60;54.90
80937;DHT22;70395;51.382;7.074;2023-07-13T16:13:22;23.60;53.20